createdAt,value
2023-01-05T00:00:06.274Z,0.30
2023-01-05T00:02:42.600Z,0.30
2023-01-05T00:05:11.526Z,0.23
2023-01-05T00:07:40.165Z,0.10
2023-01-05T00:10:29.941Z,0.20
2023-01-05T00:13:30.361Z,0.20
2023-01-05T00:16:33.097Z,0.10
2023-01-05T00:19:20.847Z,0.10
2023-01-05T00:22:07.179Z,0.20
2023-01-05T00:24:35.413Z,0.40
2023-01-05T00:27:03.572Z,0.23
2023-01-05T00:29:32.743Z,0.37
2023-01-05T00:32:01.145Z,0.13
2023-01-05T00:34:30.730Z,0.37
2023-01-05T00:36:59.482Z,0.20
2023-01-05T00:39:27.635Z,0.20
2023-01-05T00:41:56.035Z,0.10
2023-01-05T00:44:24.442Z,0.10
2023-01-05T00:46:52.718Z,0.30
2023-01-05T00:49:21.010Z,0.10
2023-01-05T00:51:50.588Z,0.20
2023-01-05T00:54:19.423Z,0.33
2023-01-05T00:56:49.292Z,0.27
2023-01-05T00:59:18.427Z,0.20
2023-01-05T01:01:47.803Z,0.10
2023-01-05T01:04:17.597Z,0.43
2023-01-05T01:06:46.257Z,0.10
2023-01-05T01:09:16.405Z,0.23
2023-01-05T01:11:45.748Z,0.10
2023-01-05T01:14:15.058Z,0.10
2023-01-05T01:16:44.883Z,0.00
2023-01-05T01:19:17.857Z,0.10
2023-01-05T01:21:46.349Z,0.10
2023-01-05T01:24:19.484Z,0.20
2023-01-05T01:26:48.233Z,0.10
2023-01-05T01:29:17.801Z,0.20
2023-01-05T01:31:48.033Z,0.07
2023-01-05T01:34:17.677Z,0.53
2023-01-05T01:36:47.067Z,0.30
2023-01-05T01:39:17.416Z,0.40
2023-01-05T01:41:49.822Z,0.40
2023-01-05T01:53:45.687Z,0.20
2023-01-05T02:50:42.914Z,0.10
2023-01-05T02:53:22.539Z,0.10
2023-01-05T02:55:58.989Z,0.03
2023-01-05T02:58:37.462Z,0.00
2023-01-05T03:01:15.469Z,0.20
2023-01-05T03:03:51.418Z,0.00
2023-01-05T03:06:30.194Z,0.10
2023-01-05T03:09:03.926Z,0.10
2023-01-05T03:12:00.642Z,0.00
2023-01-05T03:14:38.210Z,0.20
2023-01-05T03:17:11.884Z,0.00
2023-01-05T03:19:47.237Z,0.00
2023-01-05T03:22:41.281Z,0.10
2023-01-05T03:25:32.786Z,0.10
2023-01-05T03:28:22.322Z,0.00
2023-01-05T03:31:22.289Z,0.00
2023-01-05T03:34:16.794Z,0.00
2023-01-05T03:36:57.082Z,0.10
2023-01-05T03:39:31.633Z,0.00
2023-01-05T03:42:03.741Z,0.30
2023-01-05T03:44:35.939Z,0.00
2023-01-05T03:47:05.111Z,0.10
2023-01-05T03:49:35.611Z,0.00
2023-01-05T03:52:04.695Z,0.10
2023-01-05T03:54:35.558Z,0.00
2023-01-05T03:57:04.600Z,0.10
2023-01-05T03:59:35.092Z,0.10
2023-01-05T04:02:05.951Z,0.00
2023-01-05T04:04:34.692Z,0.20
2023-01-05T04:07:08.111Z,0.00
2023-01-05T04:09:39.071Z,0.07
2023-01-05T04:12:08.006Z,0.00
2023-01-05T04:14:40.755Z,0.07
2023-01-05T04:17:09.723Z,0.10
2023-01-05T04:19:39.687Z,0.00
2023-01-05T04:22:09.939Z,0.10
2023-01-05T04:24:40.552Z,0.10
2023-01-05T04:27:10.244Z,0.20
2023-01-05T04:29:40.615Z,0.20
2023-01-05T04:32:09.769Z,0.00
2023-01-05T04:34:39.670Z,0.10
2023-01-05T04:37:08.914Z,0.10
2023-01-05T04:39:39.367Z,0.10
2023-01-05T04:42:09.631Z,0.00
2023-01-05T04:44:39.424Z,0.20
2023-01-05T04:47:08.428Z,0.00
2023-01-05T04:49:41.117Z,0.10
2023-01-05T04:52:10.923Z,0.10
2023-01-05T04:54:42.126Z,0.00
2023-01-05T04:57:10.393Z,0.10
2023-01-05T04:59:40.374Z,0.00
2023-01-05T05:02:08.773Z,0.00
2023-01-05T05:04:37.510Z,0.00
2023-01-05T05:07:05.840Z,0.10
2023-01-05T05:09:34.296Z,0.00
2023-01-05T05:12:03.980Z,0.20
2023-01-05T05:14:34.422Z,0.00
2023-01-05T05:17:04.166Z,0.07
2023-01-05T05:19:32.923Z,0.00
2023-01-05T05:22:01.800Z,0.00
2023-01-05T05:24:30.152Z,0.07
2023-01-05T05:26:58.899Z,0.07
2023-01-05T05:29:28.471Z,0.10
2023-01-05T05:31:56.767Z,0.00
2023-01-05T05:34:25.073Z,0.07
2023-01-05T05:36:53.695Z,0.13
2023-01-05T05:39:22.039Z,0.10
2023-01-05T05:41:50.159Z,0.00
2023-01-05T05:44:18.359Z,0.10
2023-01-05T05:46:47.890Z,0.00
2023-01-05T05:49:16.556Z,0.00
2023-01-05T05:51:44.711Z,0.00
2023-01-05T05:54:13.066Z,0.00
2023-01-05T05:56:41.490Z,0.10
2023-01-05T05:59:09.717Z,0.20
2023-01-05T06:01:37.983Z,0.40
2023-01-05T06:04:07.724Z,0.30
2023-01-05T06:06:35.901Z,0.30
2023-01-05T06:09:04.358Z,0.60
2023-01-05T06:11:32.874Z,0.40
2023-01-05T06:14:03.001Z,0.53
2023-01-05T06:16:31.227Z,0.80
2023-01-05T06:18:59.527Z,0.73
2023-01-05T06:21:29.178Z,0.70
2023-01-05T06:23:57.455Z,0.87
2023-01-05T06:26:25.949Z,0.80
2023-01-05T06:28:54.106Z,0.73
2023-01-05T06:31:22.692Z,0.70
2023-01-05T06:33:50.804Z,0.83
2023-01-05T06:36:19.259Z,0.70
2023-01-05T06:38:48.900Z,1.00
2023-01-05T06:41:17.005Z,1.00
2023-01-05T06:43:45.864Z,1.33
2023-01-05T06:46:14.035Z,0.93
2023-01-05T06:48:42.478Z,0.97
2023-01-05T06:51:10.808Z,1.07
2023-01-05T06:53:39.155Z,0.60
2023-01-05T06:56:09.622Z,0.80
2023-01-05T06:58:38.132Z,0.67
2023-01-05T07:01:06.694Z,0.80
2023-01-05T07:03:35.277Z,0.87
2023-01-05T07:06:05.311Z,0.90
2023-01-05T07:08:34.926Z,1.03
2023-01-05T07:11:03.025Z,0.90
2023-01-05T07:13:33.083Z,0.97
2023-01-05T07:16:02.003Z,0.70
2023-01-05T07:18:30.185Z,1.13
2023-01-05T07:21:01.546Z,1.10
2023-01-05T07:23:30.090Z,1.07
2023-01-05T07:26:01.922Z,1.40
2023-01-05T07:28:30.722Z,0.80
2023-01-05T07:31:00.404Z,0.90
2023-01-05T07:33:28.776Z,1.20
2023-01-05T07:35:57.077Z,1.07
2023-01-05T07:38:25.783Z,1.20
2023-01-05T07:40:54.455Z,1.10
2023-01-05T07:43:22.656Z,1.20
2023-01-05T07:45:51.458Z,1.47
2023-01-05T07:48:23.665Z,1.20
2023-01-05T07:50:52.359Z,1.37
2023-01-05T07:53:20.790Z,1.50
2023-01-05T07:55:58.420Z,1.40
2023-01-05T07:58:28.665Z,1.40
2023-01-05T08:00:57.654Z,2.43
2023-01-05T08:03:27.187Z,1.63
2023-01-05T08:05:55.393Z,2.00
2023-01-05T08:08:24.649Z,1.47
2023-01-05T08:10:53.680Z,1.77
2023-01-05T08:13:53.751Z,2.37
2023-01-05T08:16:23.139Z,1.50
2023-01-05T08:18:52.988Z,2.10
2023-01-05T08:21:21.671Z,1.90
2023-01-05T08:23:50.590Z,2.80
2023-01-05T08:26:21.976Z,2.50
2023-01-05T08:28:50.539Z,2.27
2023-01-05T08:31:22.873Z,2.43
2023-01-05T08:33:55.270Z,2.57
2023-01-05T08:36:23.505Z,2.63
2023-01-05T08:38:53.916Z,1.77
2023-01-05T08:41:23.722Z,2.30
2023-01-05T08:43:53.424Z,2.10
2023-01-05T08:46:24.076Z,2.67
2023-01-05T08:48:56.215Z,2.00
2023-01-05T08:51:25.205Z,2.10
2023-01-05T08:53:54.082Z,2.63
2023-01-05T08:56:25.068Z,2.97
2023-01-05T08:58:55.746Z,2.20
2023-01-05T09:01:24.290Z,2.47
2023-01-05T09:03:54.363Z,2.50
2023-01-05T09:06:22.901Z,2.57
2023-01-05T09:08:51.051Z,2.90
2023-01-05T09:11:23.463Z,2.17
2023-01-05T09:13:54.315Z,3.07
2023-01-05T09:17:04.711Z,2.30
2023-01-05T09:19:17.033Z,2.53
2023-01-05T09:21:48.577Z,2.63
2023-01-05T09:24:19.251Z,2.30
2023-01-05T09:26:47.793Z,2.87
2023-01-05T09:29:17.369Z,3.00
2023-01-05T09:31:46.064Z,2.77
2023-01-05T09:34:14.461Z,2.40
2023-01-05T09:36:46.056Z,2.63
2023-01-05T09:39:14.992Z,2.40
2023-01-05T09:41:48.984Z,2.40
2023-01-05T09:44:33.545Z,1.97
2023-01-05T09:47:14.740Z,2.60
2023-01-05T09:49:47.524Z,2.03
2023-01-05T09:52:23.071Z,2.63
2023-01-05T09:54:54.283Z,2.23
2023-01-05T09:57:28.215Z,2.83
2023-01-05T10:00:04.307Z,2.63
2023-01-05T10:02:55.654Z,2.37
2023-01-05T10:05:35.056Z,2.73
2023-01-05T10:08:15.485Z,2.83
2023-01-05T10:11:09.413Z,2.30
2023-01-05T10:13:45.714Z,2.30
2023-01-05T10:16:26.062Z,2.73
2023-01-05T10:18:59.595Z,2.80
2023-01-05T10:21:53.718Z,3.00
2023-01-05T10:24:44.706Z,2.90
2023-01-05T10:27:26.568Z,2.83
2023-01-05T10:30:06.518Z,2.90
2023-01-05T10:32:51.380Z,2.97
2023-01-05T10:36:04.051Z,2.97
2023-01-05T10:38:55.938Z,3.17
2023-01-05T10:41:40.600Z,2.83
2023-01-05T10:44:56.076Z,2.67
2023-01-05T10:47:30.465Z,3.93
2023-01-05T10:50:02.395Z,2.47
2023-01-05T10:52:32.110Z,3.70
2023-01-05T10:55:04.006Z,2.77
2023-01-05T10:57:42.104Z,3.10
2023-01-05T11:00:18.010Z,3.33
2023-01-05T11:17:29.353Z,2.77
2023-01-05T12:11:19.120Z,2.93
2023-01-05T12:14:18.655Z,3.40
2023-01-05T12:16:51.414Z,3.50
2023-01-05T12:19:43.395Z,3.07
2023-01-05T12:22:51.119Z,2.83
2023-01-05T12:25:36.783Z,3.47
2023-01-05T12:28:57.914Z,3.20
2023-01-05T12:35:37.139Z,3.47
2023-01-05T12:38:25.745Z,3.73
2023-01-05T12:41:31.882Z,4.30
2023-01-05T12:44:34.109Z,2.97
2023-01-05T12:47:23.988Z,2.60
2023-01-05T12:50:11.699Z,3.27
2023-01-05T12:52:52.692Z,2.83
2023-01-05T12:55:27.844Z,2.70
2023-01-05T12:58:06.535Z,3.07
2023-01-05T13:00:47.142Z,2.90
2023-01-05T13:03:25.513Z,3.17
2023-01-05T13:06:06.223Z,3.53
2023-01-05T13:08:46.161Z,3.27
2023-01-05T13:11:23.825Z,2.93
2023-01-05T13:14:00.163Z,3.27
2023-01-05T13:16:39.003Z,3.00
2023-01-05T13:19:15.441Z,3.07
2023-01-05T13:21:51.116Z,3.03
2023-01-05T13:24:30.411Z,3.10
2023-01-05T13:27:06.387Z,3.30
2023-01-05T13:29:44.434Z,3.23
2023-01-05T13:32:57.888Z,2.80
2023-01-05T13:35:52.361Z,3.47
2023-01-05T13:39:22.899Z,2.77
2023-01-05T13:42:33.261Z,3.63
2023-01-05T13:45:55.886Z,3.47
2023-01-05T13:49:17.292Z,3.60
2023-01-05T13:51:57.274Z,3.20
2023-01-05T13:55:00.116Z,2.97
2023-01-05T13:57:37.495Z,2.53
2023-01-05T14:00:23.566Z,3.43
2023-01-05T14:03:08.340Z,3.60
2023-01-05T14:05:55.064Z,3.90
2023-01-05T14:08:28.157Z,3.33
2023-01-05T14:11:17.695Z,3.47
2023-01-05T14:13:53.127Z,3.80
2023-01-05T14:16:52.712Z,3.80
2023-01-05T14:19:53.764Z,3.20
2023-01-05T14:22:39.418Z,3.33
2023-01-05T14:25:50.567Z,3.30
2023-01-05T14:28:55.658Z,3.07
2023-01-05T14:31:40.944Z,5.40
2023-01-05T14:34:18.357Z,3.10
2023-01-05T14:37:04.515Z,3.37
2023-01-05T14:39:44.382Z,3.57
2023-01-05T14:42:34.182Z,2.23
2023-01-05T14:45:08.803Z,3.60
2023-01-05T14:47:47.795Z,3.57
2023-01-05T14:50:37.909Z,4.47
2023-01-05T14:53:15.777Z,4.17
2023-01-05T14:56:20.804Z,4.50
2023-01-05T14:59:14.685Z,3.90
2023-01-05T15:01:55.460Z,4.70
2023-01-05T15:04:30.488Z,5.40
2023-01-05T15:07:33.368Z,3.93
2023-01-05T15:10:28.999Z,4.70
2023-01-05T15:14:09.902Z,5.57
2023-01-05T15:17:33.754Z,3.67
2023-01-05T15:20:22.759Z,3.33
2023-01-05T15:23:14.346Z,3.97
2023-01-05T15:26:28.695Z,3.47
2023-01-05T15:29:33.064Z,3.50
2023-01-05T15:32:12.019Z,3.77
2023-01-05T15:34:51.522Z,4.27
2023-01-05T15:37:30.615Z,10.77
2023-01-05T15:40:03.899Z,5.13
2023-01-05T15:42:41.831Z,4.43
2023-01-05T19:02:28.502Z,4.33
2023-01-05T19:43:16.182Z,5.17
2023-01-05T19:45:45.657Z,5.03
2023-01-05T19:48:13.884Z,2.50
2023-01-05T19:50:42.038Z,3.47
2023-01-05T19:53:10.901Z,5.07
2023-01-05T19:55:40.227Z,2.57
2023-01-05T19:58:08.776Z,2.13
2023-01-05T20:00:38.371Z,1.03
2023-01-05T20:03:06.733Z,3.63
2023-01-05T20:05:35.035Z,3.70
2023-01-05T20:08:04.281Z,4.03
2023-01-05T20:10:32.675Z,5.70
2023-01-05T20:13:00.875Z,6.60
2023-01-05T20:15:29.039Z,7.23
2023-01-05T20:17:58.672Z,6.90
2023-01-05T20:20:26.892Z,5.33
2023-01-05T20:22:55.070Z,5.83
2023-01-05T20:25:24.041Z,5.37
2023-01-05T20:27:52.209Z,4.97
2023-01-05T20:30:22.108Z,5.00
2023-01-05T20:32:50.337Z,4.97
2023-01-05T20:35:20.367Z,5.17
2023-01-05T20:37:48.561Z,4.07
2023-01-05T20:40:16.865Z,7.10
2023-01-05T20:42:45.061Z,8.07
2023-01-05T20:45:15.297Z,4.20
2023-01-05T20:47:47.835Z,4.40
2023-01-05T20:50:16.551Z,5.90
2023-01-05T20:52:46.229Z,7.70
2023-01-05T20:55:17.868Z,5.40
2023-01-05T20:57:46.958Z,6.43
2023-01-05T21:00:16.750Z,6.03
2023-01-05T21:02:48.431Z,2.87
2023-01-05T21:05:17.629Z,2.57
2023-01-05T21:07:47.717Z,6.10
2023-01-05T21:10:16.477Z,6.10
2023-01-05T21:12:44.672Z,5.60
2023-01-05T21:15:13.121Z,5.83
2023-01-05T21:17:41.373Z,2.67
2023-01-05T21:35:36.573Z,3.10
2023-01-05T21:56:44.986Z,1.23
2023-01-05T21:59:13.115Z,2.30
2023-01-05T22:01:41.527Z,0.90
2023-01-05T22:04:09.940Z,1.70
2023-01-05T22:06:38.048Z,2.53
2023-01-05T22:09:08.868Z,1.50
2023-01-05T22:11:37.208Z,1.73
2023-01-05T22:14:07.082Z,1.57
2023-01-05T22:16:35.467Z,1.97
2023-01-05T22:19:04.436Z,2.07
2023-01-05T22:21:32.663Z,1.37
2023-01-05T22:24:01.160Z,3.40
2023-01-05T22:26:29.514Z,1.50
2023-01-05T22:28:57.948Z,2.10
2023-01-05T22:31:30.334Z,2.47
2023-01-05T22:34:01.726Z,3.17
2023-01-05T22:36:31.833Z,3.17
2023-01-05T22:39:00.692Z,1.90
2023-01-05T22:41:31.306Z,2.00
2023-01-05T22:44:02.284Z,2.37
2023-01-05T22:46:32.432Z,1.80
2023-01-05T22:49:01.539Z,2.70
2023-01-05T22:51:32.499Z,3.10
2023-01-05T22:54:02.123Z,2.53
2023-01-05T22:56:32.949Z,3.30
2023-01-05T22:59:02.618Z,2.20
2023-01-05T23:01:34.819Z,4.83
2023-01-05T23:04:06.063Z,2.30
2023-01-05T23:06:34.926Z,1.00
2023-01-05T23:09:06.810Z,2.17
2023-01-05T23:11:39.080Z,2.67
2023-01-05T23:14:11.032Z,2.30
2023-01-05T23:16:40.866Z,2.20
2023-01-05T23:19:11.207Z,2.10
2023-01-05T23:21:39.435Z,1.53
2023-01-05T23:24:08.823Z,2.10
2023-01-05T23:26:37.405Z,1.80
2023-01-05T23:29:06.572Z,2.70
2023-01-05T23:31:34.887Z,2.70
2023-01-05T23:34:04.905Z,1.83
2023-01-05T23:36:33.186Z,2.73
2023-01-05T23:39:01.625Z,2.53
2023-01-05T23:41:29.822Z,13.27
2023-01-05T23:43:57.961Z,4.13
2023-01-05T23:46:26.497Z,3.40
2023-01-05T23:48:54.816Z,3.30
2023-01-05T23:51:24.981Z,2.70
2023-01-05T23:53:55.179Z,2.30
2023-01-05T23:56:26.435Z,1.20
2023-01-05T23:59:01.110Z,2.03
